createdAt,value
2023-03-10T00:01:14.117Z,17.57
2023-03-10T00:03:42.237Z,17.54
2023-03-10T00:06:11.229Z,17.50
2023-03-10T00:08:39.515Z,17.49
2023-03-10T00:11:10.198Z,17.46
2023-03-10T00:13:38.588Z,17.46
2023-03-10T00:16:07.386Z,17.42
2023-03-10T00:18:36.056Z,17.41
2023-03-10T00:21:11.926Z,17.38
2023-03-10T00:23:40.141Z,17.36
2023-03-10T00:26:12.601Z,17.34
2023-03-10T00:28:41.017Z,17.30
2023-03-10T00:31:12.374Z,17.30
2023-03-10T00:33:40.796Z,17.27
2023-03-10T00:36:10.902Z,17.27
2023-03-10T00:38:40.318Z,17.26
2023-03-10T00:41:13.060Z,17.23
2023-03-10T00:43:41.989Z,17.21
2023-03-10T00:46:10.282Z,17.15
2023-03-10T00:48:38.880Z,17.16
2023-03-10T00:51:08.536Z,17.13
2023-03-10T00:53:37.877Z,17.12
2023-03-10T00:56:12.400Z,17.09
2023-03-10T00:58:41.176Z,17.08
2023-03-10T01:01:14.953Z,17.02
2023-03-10T01:03:43.568Z,17.06
2023-03-10T01:06:11.849Z,17.04
2023-03-10T01:08:40.205Z,17.00
2023-03-10T01:11:08.578Z,17.00
2023-03-10T01:13:39.934Z,16.98
2023-03-10T01:16:09.679Z,16.96
2023-03-10T01:18:38.521Z,16.95
2023-03-10T01:21:07.810Z,16.94
2023-03-10T01:23:35.935Z,16.92
2023-03-10T01:26:03.961Z,16.90
2023-03-10T01:28:32.198Z,16.87
2023-03-10T01:31:01.714Z,16.84
2023-03-10T01:33:29.839Z,16.83
2023-03-10T01:35:57.975Z,16.80
2023-03-10T01:38:26.100Z,16.81
2023-03-10T01:40:54.231Z,16.80
2023-03-10T01:43:28.868Z,16.77
2023-03-10T01:46:41.824Z,16.75
2023-03-10T01:49:17.779Z,16.73
2023-03-10T01:51:49.873Z,16.72
2023-03-10T01:54:21.711Z,16.70
2023-03-10T01:56:52.365Z,16.64
2023-03-10T01:59:21.806Z,16.67
2023-03-10T02:01:52.751Z,16.65
2023-03-10T02:04:27.211Z,16.63
2023-03-10T02:06:57.828Z,16.60
2023-03-10T02:09:27.050Z,16.60
2023-03-10T02:11:55.520Z,16.58
2023-03-10T02:14:23.677Z,16.57
2023-03-10T02:16:53.211Z,16.55
2023-03-10T02:19:35.718Z,16.54
2023-03-10T02:22:07.345Z,16.51
2023-03-10T02:24:44.379Z,16.50
2023-03-10T02:27:17.160Z,16.47
2023-03-10T02:29:58.828Z,16.47
2023-03-10T02:32:31.119Z,16.44
2023-03-10T02:34:59.446Z,16.44
2023-03-10T02:37:30.526Z,16.42
2023-03-10T02:40:00.328Z,16.40
2023-03-10T02:42:34.118Z,16.38
2023-03-10T02:45:03.698Z,16.38
2023-03-10T02:47:32.090Z,16.36
2023-03-10T02:50:00.399Z,16.35
2023-03-10T02:52:33.546Z,16.33
2023-03-10T02:55:01.432Z,16.32
2023-03-10T02:57:31.296Z,16.30
2023-03-10T03:00:02.005Z,16.28
2023-03-10T03:02:32.950Z,16.28
2023-03-10T03:05:01.097Z,16.25
2023-03-10T03:07:29.291Z,16.21
2023-03-10T03:09:57.795Z,16.22
2023-03-10T03:12:26.109Z,16.17
2023-03-10T03:14:55.669Z,16.19
2023-03-10T03:17:23.728Z,16.16
2023-03-10T03:19:51.842Z,16.17
2023-03-10T03:22:19.954Z,16.12
2023-03-10T03:24:48.090Z,16.12
2023-03-10T03:27:16.170Z,16.11
2023-03-10T03:29:44.364Z,16.10
2023-03-10T03:32:13.905Z,16.08
2023-03-10T03:34:42.044Z,16.05
2023-03-10T03:37:10.070Z,16.06
2023-03-10T03:39:38.350Z,16.03
2023-03-10T03:42:07.172Z,16.02
2023-03-10T03:44:35.321Z,16.01
2023-03-10T03:47:03.757Z,15.99
2023-03-10T03:49:35.443Z,15.98
2023-03-10T03:52:03.737Z,15.96
2023-03-10T03:54:33.240Z,15.95
2023-03-10T03:57:01.366Z,15.94
2023-03-10T03:59:29.860Z,15.93
2023-03-10T04:01:57.931Z,15.89
2023-03-10T04:04:26.050Z,15.87
2023-03-10T04:06:55.786Z,15.89
2023-03-10T04:09:23.911Z,15.86
2023-03-10T04:11:52.218Z,15.85
2023-03-10T04:14:20.287Z,15.85
2023-03-10T04:16:48.537Z,15.83
2023-03-10T04:19:16.750Z,15.83
2023-03-10T04:21:44.994Z,15.81
2023-03-10T04:24:14.422Z,15.80
2023-03-10T04:26:43.561Z,15.78
2023-03-10T04:29:11.710Z,15.76
2023-03-10T04:31:40.328Z,15.76
2023-03-10T04:34:08.613Z,15.74
2023-03-10T04:36:36.838Z,15.74
2023-03-10T04:39:07.125Z,15.72
2023-03-10T04:41:36.863Z,15.69
2023-03-10T04:44:05.431Z,15.69
2023-03-10T04:46:33.885Z,15.68
2023-03-10T04:49:01.968Z,15.66
2023-03-10T04:51:30.128Z,15.66
2023-03-10T04:53:59.959Z,15.64
2023-03-10T04:56:29.281Z,15.64
2023-03-10T04:58:59.362Z,15.63
2023-03-10T05:01:32.285Z,15.62
2023-03-10T05:04:00.557Z,15.61
2023-03-10T05:06:29.041Z,15.58
2023-03-10T05:08:57.783Z,15.59
2023-03-10T05:11:26.268Z,15.58
2023-03-10T05:13:54.300Z,15.57
2023-03-10T05:16:23.954Z,15.56
2023-03-10T05:18:52.170Z,15.54
2023-03-10T05:21:21.651Z,15.54
2023-03-10T05:23:50.070Z,15.53
2023-03-10T05:26:18.685Z,15.51
2023-03-10T05:28:46.722Z,15.50
2023-03-10T05:31:17.029Z,15.48
2023-03-10T05:33:47.017Z,15.48
2023-03-10T05:36:15.342Z,15.48
2023-03-10T05:38:43.560Z,15.47
2023-03-10T05:41:12.208Z,15.45
2023-03-10T05:43:40.550Z,15.44
2023-03-10T05:46:09.345Z,15.45
2023-03-10T05:48:37.457Z,15.44
2023-03-10T05:51:10.181Z,15.44
2023-03-10T05:53:39.226Z,15.42
2023-03-10T05:56:09.081Z,15.42
2023-03-10T05:58:37.698Z,15.40
2023-03-10T06:01:07.101Z,15.41
2023-03-10T06:03:36.189Z,15.40
2023-03-10T06:06:07.681Z,15.40
2023-03-10T06:08:36.460Z,15.37
2023-03-10T06:11:05.848Z,15.35
2023-03-10T06:13:34.161Z,15.38
2023-03-10T06:16:05.124Z,15.39
2023-03-10T06:18:34.478Z,15.38
2023-03-10T06:21:09.650Z,15.33
2023-03-10T06:23:38.816Z,15.38
2023-03-10T06:26:09.310Z,15.36
2023-03-10T06:28:39.405Z,15.37
2023-03-10T06:31:10.258Z,15.36
2023-03-10T06:33:38.748Z,15.36
2023-03-10T06:36:10.636Z,15.34
2023-03-10T06:38:39.169Z,15.35
2023-03-10T06:41:08.409Z,15.34
2023-03-10T06:43:37.190Z,15.35
2023-03-10T06:46:07.472Z,15.34
2023-03-10T06:48:36.295Z,15.34
2023-03-10T06:51:08.906Z,15.34
2023-03-10T06:53:37.339Z,15.34
2023-03-10T06:56:07.480Z,15.31
2023-03-10T06:58:38.269Z,15.34
2023-03-10T07:01:08.053Z,15.33
2023-03-10T07:03:37.459Z,15.32
2023-03-10T07:06:06.893Z,15.33
2023-03-10T07:08:36.901Z,15.33
2023-03-10T07:11:05.242Z,15.34
2023-03-10T07:13:33.327Z,15.32
2023-03-10T07:16:01.808Z,15.34
2023-03-10T07:18:29.918Z,15.33
2023-03-10T07:20:58.484Z,15.32
2023-03-10T07:23:27.084Z,15.33
2023-03-10T07:25:58.383Z,15.34
2023-03-10T07:28:27.072Z,15.35
2023-03-10T07:30:57.746Z,15.37
2023-03-10T07:33:26.074Z,15.42
2023-03-10T07:35:54.594Z,15.48
2023-03-10T07:38:22.928Z,15.61
2023-03-10T07:40:51.148Z,15.70
2023-03-10T07:43:23.033Z,15.82
2023-03-10T07:45:53.472Z,15.94
2023-03-10T07:48:21.705Z,16.06
2023-03-10T07:50:57.220Z,16.13
2023-03-10T07:53:25.512Z,16.19
2023-03-10T07:55:54.023Z,16.25
2023-03-10T07:58:25.457Z,16.30
2023-03-10T08:00:59.232Z,16.30
2023-03-10T08:03:28.996Z,16.35
2023-03-10T08:05:59.755Z,16.37
2023-03-10T08:08:28.346Z,16.38
2023-03-10T08:11:02.389Z,16.38
2023-03-10T08:13:33.090Z,16.38
2023-03-10T08:16:02.093Z,16.39
2023-03-10T08:18:31.526Z,16.38
2023-03-10T08:21:00.474Z,16.40
2023-03-10T08:23:28.634Z,16.39
2023-03-10T08:25:56.841Z,16.40
2023-03-10T08:28:25.750Z,16.41
2023-03-10T08:31:04.201Z,16.41
2023-03-10T08:33:33.609Z,16.42
2023-03-10T08:36:06.713Z,16.41
2023-03-10T08:38:34.895Z,16.42
2023-03-10T08:41:11.319Z,16.42
2023-03-10T08:43:39.910Z,16.42
2023-03-10T08:46:10.888Z,16.41
2023-03-10T08:48:42.555Z,16.41
2023-03-10T08:51:15.070Z,16.40
2023-03-10T08:53:46.670Z,16.42
2023-03-10T08:56:16.202Z,16.43
2023-03-10T08:58:45.115Z,16.44
2023-03-10T09:01:16.668Z,16.44
2023-03-10T09:03:46.410Z,16.43
2023-03-10T09:06:15.030Z,16.45
2023-03-10T09:08:43.275Z,16.45
2023-03-10T09:11:17.159Z,16.46
2023-03-10T09:13:45.541Z,16.47
2023-03-10T09:16:15.367Z,16.48
2023-03-10T09:18:43.834Z,16.45
2023-03-10T09:21:14.401Z,16.46
2023-03-10T09:23:44.700Z,16.47
2023-03-10T09:26:13.172Z,16.49
2023-03-10T09:28:41.550Z,16.49
2023-03-10T09:31:12.858Z,16.50
2023-03-10T09:33:45.103Z,16.49
2023-03-10T09:36:13.927Z,16.49
2023-03-10T09:38:43.049Z,16.54
2023-03-10T09:41:34.697Z,16.55
2023-03-10T09:44:23.749Z,16.56
2023-03-10T09:47:05.022Z,16.57
2023-03-10T09:49:38.611Z,16.59
2023-03-10T09:52:20.926Z,16.62
2023-03-10T09:54:58.809Z,16.64
2023-03-10T09:57:28.340Z,16.67
2023-03-10T10:00:01.091Z,16.73
2023-03-10T10:02:33.662Z,16.78
2023-03-10T10:05:08.406Z,16.85
2023-03-10T10:07:43.904Z,16.87
2023-03-10T10:10:18.587Z,16.92
2023-03-10T10:12:48.280Z,16.98
2023-03-10T10:15:17.986Z,17.02
2023-03-10T10:18:12.063Z,17.05
2023-03-10T10:20:53.772Z,17.10
2023-03-10T10:23:29.712Z,17.13
2023-03-10T10:26:02.803Z,17.17
2023-03-10T10:28:35.971Z,17.22
2023-03-10T10:31:17.238Z,17.26
2023-03-10T10:33:57.555Z,17.29
2023-03-10T10:36:28.701Z,17.32
2023-03-10T10:38:58.145Z,17.37
2023-03-10T10:41:29.261Z,17.41
2023-03-10T10:44:01.237Z,17.43
2023-03-10T10:46:30.882Z,17.47
2023-03-10T10:49:05.106Z,17.51
2023-03-10T10:51:37.937Z,17.54
2023-03-10T10:54:22.882Z,17.54
2023-03-10T10:56:55.551Z,17.62
2023-03-10T10:59:28.258Z,17.65
2023-03-10T11:01:58.777Z,17.66
2023-03-10T11:04:48.051Z,17.68
2023-03-10T11:07:20.261Z,17.70
2023-03-10T11:09:49.006Z,17.76
2023-03-10T11:12:22.845Z,17.77
2023-03-10T11:15:06.575Z,17.83
2023-03-10T11:17:39.464Z,17.86
2023-03-10T11:20:18.981Z,17.84
2023-03-10T11:22:54.093Z,17.88
2023-03-10T11:25:30.898Z,17.89
2023-03-10T11:28:15.680Z,17.88
2023-03-10T11:30:53.464Z,17.90
2023-03-10T11:33:29.153Z,17.92
2023-03-10T11:36:01.270Z,17.94
2023-03-10T11:38:38.701Z,17.95
2023-03-10T11:41:12.418Z,17.96
2023-03-10T11:43:54.233Z,17.99
2023-03-10T11:46:26.372Z,18.01
2023-03-10T11:49:04.095Z,18.02
2023-03-10T11:51:38.668Z,18.08
2023-03-10T11:54:15.276Z,18.11
2023-03-10T11:56:44.276Z,18.13
2023-03-10T11:59:18.097Z,18.18
2023-03-10T12:01:52.373Z,18.20
2023-03-10T12:04:24.169Z,18.23
2023-03-10T12:06:56.174Z,18.22
2023-03-10T12:09:34.672Z,18.31
2023-03-10T12:12:05.071Z,18.37
2023-03-10T12:14:35.198Z,18.41
2023-03-10T12:17:05.484Z,18.46
2023-03-10T12:19:33.650Z,18.51
2023-03-10T12:22:25.383Z,18.55
2023-03-10T12:24:54.842Z,18.58
2023-03-10T12:27:22.996Z,18.61
2023-03-10T12:29:51.257Z,18.67
2023-03-10T12:32:47.410Z,18.71
2023-03-10T12:35:46.334Z,18.73
2023-03-10T12:38:31.398Z,18.75
2023-03-10T12:41:01.866Z,18.79
2023-03-10T12:44:03.290Z,18.85
2023-03-10T12:46:43.613Z,18.89
2023-03-10T12:49:28.103Z,18.91
2023-03-10T12:52:03.485Z,18.93
2023-03-10T12:54:43.932Z,18.94
2023-03-10T12:57:18.972Z,18.99
2023-03-10T12:59:55.674Z,19.03
2023-03-10T13:02:33.601Z,19.08
2023-03-10T13:05:08.048Z,19.10
2023-03-10T13:07:37.941Z,19.11
2023-03-10T13:10:08.015Z,19.18
2023-03-10T13:12:48.040Z,19.23
2023-03-10T13:15:24.881Z,19.26
2023-03-10T13:17:55.214Z,19.29
2023-03-10T13:20:24.484Z,19.32
2023-03-10T13:22:57.691Z,19.37
2023-03-10T13:25:26.740Z,19.38
2023-03-10T13:27:57.548Z,19.43
2023-03-10T13:30:28.071Z,19.46
2023-03-10T13:32:58.376Z,19.51
2023-03-10T13:35:32.026Z,19.50
2023-03-10T13:38:08.737Z,19.51
2023-03-10T13:40:38.724Z,19.55
2023-03-10T13:43:19.766Z,19.58
2023-03-10T13:45:54.750Z,19.55
2023-03-10T13:48:24.541Z,19.54
2023-03-10T13:51:06.244Z,19.55
2023-03-10T13:53:34.429Z,19.53
2023-03-10T13:56:15.795Z,19.52
2023-03-10T13:58:47.301Z,19.51
2023-03-10T14:01:19.895Z,19.51
2023-03-10T14:03:56.728Z,19.51
2023-03-10T14:06:25.435Z,19.48
2023-03-10T14:08:54.396Z,19.47
2023-03-10T14:11:34.370Z,19.46
2023-03-10T14:14:07.844Z,19.45
2023-03-10T14:16:51.244Z,19.42
2023-03-10T14:19:49.133Z,19.43
2023-03-10T14:22:40.713Z,19.42
2023-03-10T14:25:19.297Z,19.39
2023-03-10T14:27:53.324Z,19.34
2023-03-10T14:30:26.645Z,19.35
2023-03-10T14:32:55.961Z,19.34
2023-03-10T14:35:25.124Z,19.32
2023-03-10T14:37:56.334Z,19.29
2023-03-10T14:40:26.652Z,19.31
2023-03-10T14:42:58.891Z,19.30
2023-03-10T14:45:31.953Z,19.29
2023-03-10T14:48:01.406Z,19.28
2023-03-10T14:50:30.981Z,19.29
2023-03-10T14:52:59.111Z,19.27
2023-03-10T14:55:27.443Z,19.28
2023-03-10T14:57:59.843Z,19.26
2023-03-10T15:00:29.491Z,19.26
2023-03-10T15:02:57.666Z,19.26
2023-03-10T15:05:44.994Z,19.25
2023-03-10T15:08:15.409Z,19.24
2023-03-10T15:10:46.752Z,19.23
2023-03-10T15:13:15.710Z,19.21
2023-03-10T15:15:47.140Z,19.17
2023-03-10T15:18:17.710Z,19.19
2023-03-10T15:20:46.088Z,19.16
2023-03-10T15:23:17.603Z,19.13
2023-03-10T15:25:46.973Z,19.11
2023-03-10T15:28:15.279Z,19.09
2023-03-10T15:30:43.433Z,19.08
2023-03-10T15:33:13.097Z,19.04
2023-03-10T15:35:42.444Z,19.05
2023-03-10T15:38:13.642Z,19.01
2023-03-10T15:40:43.170Z,19.00
2023-03-10T15:43:11.740Z,18.98
2023-03-10T15:45:42.858Z,18.96
2023-03-10T15:48:12.804Z,18.95
2023-03-10T15:50:42.877Z,18.91
2023-03-10T15:53:14.195Z,18.91
2023-03-10T15:55:46.251Z,18.89
2023-03-10T15:58:17.038Z,18.88
2023-03-10T16:00:45.534Z,18.87
2023-03-10T16:03:18.250Z,18.85
2023-03-10T16:05:49.022Z,18.85
2023-03-10T16:08:19.158Z,18.83
2023-03-10T16:10:53.117Z,18.86
2023-03-10T16:13:21.665Z,18.85
2023-03-10T16:15:50.116Z,18.81
2023-03-10T16:18:20.120Z,18.77
2023-03-10T16:20:58.711Z,18.75
2023-03-10T16:23:35.916Z,18.72
2023-03-10T16:26:08.993Z,18.70
2023-03-10T16:28:37.918Z,18.67
2023-03-10T16:31:07.577Z,18.65
2023-03-10T16:33:37.845Z,18.64
2023-03-10T16:36:08.627Z,18.58
2023-03-10T16:38:37.249Z,18.59
2023-03-10T16:41:05.621Z,18.56
2023-03-10T16:43:34.113Z,18.55
2023-03-10T16:46:09.025Z,18.53
2023-03-10T16:48:42.319Z,18.52
2023-03-10T16:51:23.672Z,18.48
2023-03-10T16:53:52.163Z,18.49
2023-03-10T16:56:21.127Z,18.51
2023-03-10T16:58:49.282Z,18.55
2023-03-10T17:01:17.481Z,18.63
2023-03-10T17:03:48.879Z,18.73
2023-03-10T17:06:20.175Z,18.90
2023-03-10T17:08:49.031Z,19.03
2023-03-10T17:11:22.909Z,19.12
2023-03-10T17:13:53.682Z,19.23
2023-03-10T17:16:23.566Z,19.31
2023-03-10T17:18:53.914Z,19.40
2023-03-10T17:21:24.956Z,19.48
2023-03-10T17:23:53.425Z,19.58
2023-03-10T17:26:22.118Z,19.65
2023-03-10T17:28:55.483Z,19.72
2023-03-10T17:31:27.083Z,19.75
2023-03-10T17:33:59.287Z,19.78
2023-03-10T17:36:28.349Z,19.79
2023-03-10T17:38:58.750Z,19.78
2023-03-10T17:41:28.075Z,19.78
2023-03-10T17:43:56.698Z,19.76
2023-03-10T17:46:27.311Z,19.77
2023-03-10T17:48:57.850Z,19.73
2023-03-10T17:51:27.737Z,19.70
2023-03-10T17:53:58.320Z,19.71
2023-03-10T17:56:26.619Z,19.69
2023-03-10T17:58:55.191Z,19.67
2023-03-10T18:01:26.857Z,19.67
2023-03-10T18:03:57.161Z,19.64
2023-03-10T18:06:27.109Z,19.63
2023-03-10T18:08:56.724Z,19.62
2023-03-10T18:11:25.460Z,19.59
2023-03-10T18:13:54.741Z,19.57
2023-03-10T18:16:25.071Z,19.55
2023-03-10T18:18:54.202Z,19.52
2023-03-10T18:21:25.491Z,19.53
2023-03-10T18:23:54.227Z,19.49
2023-03-10T18:26:27.440Z,19.49
2023-03-10T18:28:58.852Z,19.46
2023-03-10T18:31:30.143Z,19.45
2023-03-10T18:33:58.586Z,19.45
2023-03-10T18:36:29.476Z,19.43
2023-03-10T18:38:57.916Z,19.45
2023-03-10T18:41:29.349Z,19.44
2023-03-10T18:43:59.911Z,19.41
2023-03-10T18:46:28.082Z,19.39
2023-03-10T18:48:56.500Z,19.35
2023-03-10T18:51:26.390Z,19.33
2023-03-10T18:53:56.676Z,19.31
2023-03-10T18:56:25.999Z,19.28
2023-03-10T18:58:54.271Z,19.26
2023-03-10T19:01:23.180Z,19.23
2023-03-10T19:03:51.519Z,19.17
2023-03-10T19:06:19.936Z,19.17
2023-03-10T19:08:48.036Z,19.15
2023-03-10T19:11:17.676Z,19.11
2023-03-10T19:13:45.787Z,19.10
2023-03-10T19:16:13.843Z,19.07
2023-03-10T19:18:41.960Z,19.05
2023-03-10T19:21:12.981Z,19.02
2023-03-10T19:23:44.040Z,19.00
2023-03-10T19:26:12.878Z,18.96
2023-03-10T19:28:42.680Z,18.95
2023-03-10T19:31:12.710Z,18.94
2023-03-10T19:33:41.152Z,18.92
2023-03-10T19:36:12.595Z,18.85
2023-03-10T19:38:42.625Z,18.86
2023-03-10T19:41:13.684Z,18.83
2023-03-10T19:43:43.881Z,18.79
2023-03-10T19:46:14.126Z,18.76
2023-03-10T19:48:42.669Z,18.75
2023-03-10T19:51:19.396Z,18.73
2023-03-10T19:53:47.631Z,18.71
2023-03-10T19:56:17.718Z,18.68
2023-03-10T19:58:49.332Z,18.64
2023-03-10T20:01:19.886Z,18.66
2023-03-10T20:03:48.357Z,18.64
2023-03-10T20:06:16.523Z,18.62
2023-03-10T20:08:44.604Z,18.60
2023-03-10T20:11:14.685Z,18.58
2023-03-10T20:13:44.076Z,18.55
2023-03-10T20:16:15.993Z,18.47
2023-03-10T20:18:44.418Z,18.52
2023-03-10T20:21:12.612Z,18.51
2023-03-10T20:23:40.761Z,18.48
2023-03-10T20:26:11.009Z,18.45
2023-03-10T20:28:39.865Z,18.44
2023-03-10T20:31:08.274Z,18.42
2023-03-10T20:33:38.082Z,18.41
2023-03-10T20:36:08.638Z,18.39
2023-03-10T20:38:36.714Z,18.36
2023-03-10T20:41:05.453Z,18.34
2023-03-10T20:43:33.835Z,18.34
2023-03-10T20:46:01.910Z,18.29
2023-03-10T20:48:30.237Z,18.28
2023-03-10T20:51:00.350Z,18.26
2023-03-10T20:53:28.798Z,18.25
2023-03-10T20:55:56.947Z,18.24
2023-03-10T20:58:25.176Z,18.21
2023-03-10T21:00:53.526Z,18.20
2023-03-10T21:03:22.492Z,18.20
2023-03-10T21:05:50.667Z,18.18
2023-03-10T21:08:20.553Z,18.14
2023-03-10T21:10:49.506Z,18.15
2023-03-10T21:13:17.771Z,18.13
2023-03-10T21:15:45.917Z,18.12
2023-03-10T21:18:13.968Z,18.10
2023-03-10T21:20:42.581Z,18.09
2023-03-10T21:23:10.890Z,18.06
2023-03-10T21:25:41.330Z,18.06
2023-03-10T21:28:10.049Z,18.05
2023-03-10T21:30:42.581Z,18.04
2023-03-10T21:33:10.958Z,18.02
2023-03-10T21:35:40.522Z,18.00
2023-03-10T21:38:08.646Z,18.00
2023-03-10T21:40:36.807Z,17.98
2023-03-10T21:43:06.281Z,17.97
2023-03-10T21:45:37.377Z,17.94
2023-03-10T21:48:06.303Z,17.94
2023-03-10T21:50:34.764Z,17.94
2023-03-10T21:53:03.382Z,17.91
2023-03-10T21:55:34.459Z,17.92
2023-03-10T21:58:03.034Z,17.90
2023-03-10T22:00:32.907Z,17.89
2023-03-10T22:03:01.009Z,17.84
2023-03-10T22:05:29.331Z,17.86
2023-03-10T22:07:58.490Z,17.85
2023-03-10T22:10:26.775Z,17.84
2023-03-10T22:12:54.815Z,17.82
2023-03-10T22:15:26.312Z,17.80
2023-03-10T22:17:56.805Z,17.79
2023-03-10T22:20:26.945Z,17.79
2023-03-10T22:22:55.507Z,17.76
2023-03-10T22:25:23.974Z,17.75
2023-03-10T22:27:54.661Z,17.75
2023-03-10T22:30:24.380Z,17.74
2023-03-10T22:32:52.878Z,17.72
2023-03-10T22:35:23.402Z,17.72
2023-03-10T22:37:52.036Z,17.68
2023-03-10T22:40:22.214Z,17.70
2023-03-10T22:42:50.516Z,17.69
2023-03-10T22:45:20.907Z,17.67
2023-03-10T22:47:49.963Z,17.66
2023-03-10T22:50:20.806Z,17.63
2023-03-10T22:52:51.034Z,17.65
2023-03-10T22:55:23.627Z,17.62
2023-03-10T22:57:52.161Z,17.61
2023-03-10T23:00:22.250Z,17.61
2023-03-10T23:02:52.243Z,17.60
2023-03-10T23:05:21.371Z,17.58
2023-03-10T23:07:51.368Z,17.56
2023-03-10T23:10:22.938Z,17.55
2023-03-10T23:12:52.317Z,17.55
2023-03-10T23:15:25.198Z,17.54
2023-03-10T23:17:54.522Z,17.53
2023-03-10T23:20:26.836Z,17.49
2023-03-10T23:22:57.455Z,17.50
2023-03-10T23:25:27.630Z,17.48
2023-03-10T23:27:56.024Z,17.44
2023-03-10T23:30:24.979Z,17.44
2023-03-10T23:32:54.359Z,17.45
2023-03-10T23:35:25.627Z,17.42
2023-03-10T23:37:54.024Z,17.43
2023-03-10T23:40:27.061Z,17.41
2023-03-10T23:42:55.399Z,17.39
2023-03-10T23:45:24.880Z,17.38
2023-03-10T23:47:55.533Z,17.37
2023-03-10T23:50:27.034Z,17.35
2023-03-10T23:52:55.214Z,17.31
2023-03-10T23:55:26.565Z,17.31
2023-03-10T23:57:54.813Z,17.32
